Time;durP1;ratioP1;P1;durP2;ratioP2;P2;SDS_P1;SDS_P2;PMS_P1;PMS_P2;Temp;Humidity;BMP_temperature;BMP_pressure;BME280_temperature;BME280_humidity;BME280_pressure;Samples;Min_cycle;Max_cycle;Signal;HPM_P1;HPM_P2
2024/01/17 00:00:28;;;;;;;37.47;34.57;;;1.80;99.90;;;;;;5056507;28;20029;-76
2024/01/17 00:02:55;;;;;;;27.13;25.33;;;1.80;99.90;;;;;;5044453;28;20467;-75
2024/01/17 00:05:22;;;;;;;37.37;34.70;;;1.90;99.90;;;;;;5033996;28;20379;-75
2024/01/17 00:07:48;;;;;;;44.83;41.67;;;1.90;99.90;;;;;;5054105;28;20060;-75
2024/01/17 00:10:14;;;;;;;41.23;38.33;;;1.90;99.90;;;;;;5049673;28;20475;-76
2024/01/17 00:12:40;;;;;;;42.57;39.80;;;1.90;99.90;;;;;;5043741;28;20036;-75
2024/01/17 00:15:07;;;;;;;38.90;35.67;;;1.90;99.90;;;;;;5032670;28;20050;-74
2024/01/17 00:17:33;;;;;;;34.23;31.80;;;1.90;99.90;;;;;;5053075;28;20037;-76
2024/01/17 00:19:59;;;;;;;41.23;38.23;;;1.90;99.90;;;;;;5053157;28;20028;-76
2024/01/17 00:22:26;;;;;;;36.93;34.50;;;1.90;99.90;;;;;;5045079;28;20041;-75
2024/01/17 00:24:52;;;;;;;42.87;39.80;;;2.00;99.90;;;;;;5033791;28;20068;-75
2024/01/17 00:27:23;;;;;;;41.10;38.10;;;2.00;99.90;;;;;;5050779;28;20051;-75
2024/01/17 00:29:49;;;;;;;33.92;31.10;;;2.00;99.90;;;;;;5051084;28;20025;-75
2024/01/17 00:32:15;;;;;;;78.10;73.60;;;2.10;99.90;;;;;;5049024;28;20396;-75
2024/01/17 00:34:42;;;;;;;42.57;39.43;;;2.10;99.90;;;;;;5053418;28;20037;-75
2024/01/17 00:37:09;;;;;;;40.97;37.73;;;2.10;99.90;;;;;;5053118;28;20036;-75
2024/01/17 00:39:35;;;;;;;34.30;31.73;;;2.00;99.90;;;;;;5053289;28;20013;-75
2024/01/17 00:42:01;;;;;;;39.30;36.07;;;2.00;99.90;;;;;;5049567;28;20040;-75
2024/01/17 00:44:28;;;;;;;37.60;34.50;;;2.00;99.90;;;;;;5033305;28;20032;-75
2024/01/17 00:46:55;;;;;;;32.53;29.83;;;2.10;99.90;;;;;;5046652;28;20060;-75
2024/01/17 00:49:21;;;;;;;41.47;38.37;;;2.10;99.90;;;;;;5044690;28;20415;-75
2024/01/17 00:51:47;;;;;;;34.83;31.90;;;2.10;99.90;;;;;;5044983;28;20037;-75
2024/01/17 00:54:13;;;;;;;39.43;36.43;;;2.10;99.90;;;;;;5052942;28;20021;-75
2024/01/17 00:56:39;;;;;;;28.00;26.10;;;2.20;99.90;;;;;;5052244;28;20040;-75
2024/01/17 00:59:05;;;;;;;38.07;35.43;;;2.20;99.90;;;;;;5052964;28;20378;-75
2024/01/17 01:01:31;;;;;;;27.33;25.40;;;2.20;99.90;;;;;;5052258;28;20036;-75
2024/01/17 01:03:58;;;;;;;26.63;24.70;;;2.20;99.90;;;;;;5050279;28;20479;-75
2024/01/17 01:06:24;;;;;;;50.80;47.00;;;2.10;99.90;;;;;;5051599;28;20049;-74
2024/01/17 01:08:50;;;;;;;37.00;34.63;;;2.10;99.90;;;;;;5052600;28;20029;-75
2024/01/17 01:11:16;;;;;;;34.97;32.23;;;2.20;99.90;;;;;;5050390;28;20025;-75
2024/01/17 01:13:42;;;;;;;34.27;31.63;;;2.20;99.90;;;;;;5051928;28;20056;-75
2024/01/17 01:16:10;;;;;;;30.03;27.73;;;2.30;99.90;;;;;;5051975;28;20044;-75
2024/01/17 01:18:36;;;;;;;33.60;31.03;;;2.30;99.90;;;;;;5053072;28;20037;-75
2024/01/17 01:21:02;;;;;;;36.13;33.77;;;2.30;99.90;;;;;;5048438;28;20040;-75
2024/01/17 01:23:29;;;;;;;33.70;31.67;;;2.30;99.90;;;;;;5036759;28;20037;-75
2024/01/17 01:25:55;;;;;;;36.97;34.43;;;2.30;99.90;;;;;;5038621;28;20067;-75
2024/01/17 01:28:21;;;;;;;36.67;34.33;;;2.30;99.90;;;;;;5052700;28;20048;-75
2024/01/17 01:30:47;;;;;;;33.83;31.80;;;2.30;99.90;;;;;;5051529;28;20052;-74
2024/01/17 01:33:13;;;;;;;36.80;34.60;;;2.30;99.90;;;;;;5039774;28;20034;-74
2024/01/17 01:35:39;;;;;;;33.77;31.57;;;2.30;99.90;;;;;;5042602;28;20039;-74
2024/01/17 01:38:06;;;;;;;30.97;28.93;;;2.40;99.90;;;;;;5051431;28;20040;-75
2024/01/17 01:40:32;;;;;;;34.10;31.80;;;2.40;99.90;;;;;;5037570;28;20044;-75
2024/01/17 01:43:00;;;;;;;37.43;35.13;;;2.40;99.90;;;;;;5051194;28;20025;-75
2024/01/17 01:45:26;;;;;;;34.57;32.23;;;2.50;99.90;;;;;;5051043;28;20033;-75
2024/01/17 01:47:52;;;;;;;31.67;29.67;;;2.50;99.90;;;;;;5052248;28;20423;-75
2024/01/17 01:50:18;;;;;;;32.63;30.43;;;2.50;99.90;;;;;;5044609;28;20036;-74
2024/01/17 01:52:45;;;;;;;25.60;24.20;;;2.50;99.90;;;;;;5043320;28;20045;-75
2024/01/17 01:55:11;;;;;;;29.00;27.50;;;2.50;99.90;;;;;;5058889;28;20026;-75
2024/01/17 01:57:37;;;;;;;31.27;29.37;;;2.50;99.90;;;;;;5030901;28;20037;-74
2024/01/17 02:00:04;;;;;;;27.90;26.30;;;2.50;99.90;;;;;;5031835;28;20036;-75
2024/01/17 02:02:31;;;;;;;39.57;37.03;;;2.60;99.90;;;;;;5044503;28;20044;-75
2024/01/17 02:04:58;;;;;;;35.93;33.87;;;2.60;99.90;;;;;;5014502;28;20025;-74
2024/01/17 02:07:24;;;;;;;31.50;29.27;;;2.60;99.90;;;;;;5031373;28;20434;-75
2024/01/17 02:09:50;;;;;;;26.43;24.97;;;2.60;99.90;;;;;;5050887;28;20040;-75
2024/01/17 02:12:16;;;;;;;33.93;31.70;;;2.60;99.90;;;;;;5046014;28;20108;-75
2024/01/17 02:14:42;;;;;;;25.70;24.37;;;2.60;99.90;;;;;;5033207;28;20045;-75
2024/01/17 02:17:08;;;;;;;31.07;29.07;;;2.70;99.90;;;;;;5051454;28;20347;-75
2024/01/17 02:19:35;;;;;;;29.13;27.23;;;2.70;99.90;;;;;;5056189;28;20057;-75
2024/01/17 02:22:01;;;;;;;32.83;30.73;;;2.70;99.90;;;;;;5043104;28;20381;-75
2024/01/17 02:24:28;;;;;;;32.30;30.33;;;2.80;99.90;;;;;;5051299;28;20033;-75
2024/01/17 02:26:55;;;;;;;39.50;37.13;;;2.70;99.90;;;;;;5054325;28;20052;-75
2024/01/17 02:29:21;;;;;;;37.10;34.87;;;2.80;99.90;;;;;;5055589;28;20045;-75
2024/01/17 02:31:47;;;;;;;30.30;28.37;;;2.80;99.90;;;;;;5054777;28;20029;-75
2024/01/17 02:34:13;;;;;;;29.63;27.73;;;2.80;99.90;;;;;;5053995;28;20037;-75
2024/01/17 02:36:39;;;;;;;37.63;34.97;;;2.80;99.90;;;;;;5053663;28;20048;-75
2024/01/17 02:39:05;;;;;;;34.00;32.07;;;2.80;99.90;;;;;;5055436;28;20029;-75
2024/01/17 02:41:31;;;;;;;25.40;23.93;;;2.80;99.90;;;;;;5055315;28;20029;-75
2024/01/17 02:43:58;;;;;;;40.57;37.93;;;2.90;99.90;;;;;;5038217;28;20048;-75
2024/01/17 02:46:27;;;;;;;33.90;32.07;;;2.90;99.90;;;;;;5052380;28;20053;-75
2024/01/17 02:48:53;;;;;;;29.60;27.57;;;2.90;99.90;;;;;;5055626;28;20041;-75
2024/01/17 02:51:19;;;;;;;33.20;31.00;;;2.90;99.90;;;;;;5069755;28;20040;-75
2024/01/17 02:53:45;;;;;;;34.33;32.23;;;2.90;99.90;;;;;;5040462;28;20049;-75
2024/01/17 02:56:14;;;;;;;39.67;37.13;;;2.90;99.90;;;;;;5043722;28;20466;-76
2024/01/17 02:58:40;;;;;;;52.37;49.10;;;3.00;99.90;;;;;;5055490;28;20051;-75
2024/01/17 03:01:06;;;;;;;37.90;35.40;;;3.20;99.90;;;;;;5053417;28;20394;-75
2024/01/17 03:03:32;;;;;;;42.93;40.10;;;3.30;99.90;;;;;;5042965;28;20029;-75
2024/01/17 03:05:59;;;;;;;42.00;39.20;;;3.20;99.90;;;;;;5041187;28;20029;-75
2024/01/17 03:08:25;;;;;;;38.80;36.30;;;3.20;99.90;;;;;;5040689;28;20052;-75
2024/01/17 03:10:51;;;;;;;45.13;42.13;;;3.20;99.90;;;;;;5050950;28;20040;-75
2024/01/17 03:13:17;;;;;;;41.50;38.83;;;3.10;99.90;;;;;;5033367;28;20049;-75
2024/01/17 03:15:43;;;;;;;45.87;42.93;;;3.10;99.90;;;;;;5040190;28;20033;-75
2024/01/17 03:18:13;;;;;;;45.23;42.23;;;3.10;99.90;;;;;;5053588;28;20029;-75
2024/01/17 03:20:40;;;;;;;51.33;47.70;;;3.20;99.90;;;;;;5052802;28;20037;-75
2024/01/17 03:23:06;;;;;;;50.93;48.03;;;3.20;99.90;;;;;;5052687;28;20066;-75
2024/01/17 03:25:33;;;;;;;39.30;36.63;;;3.20;99.90;;;;;;5037889;28;20048;-75
2024/01/17 03:27:59;;;;;;;46.17;43.13;;;3.20;99.90;;;;;;5053711;28;20502;-75
2024/01/17 03:30:25;;;;;;;39.03;36.10;;;3.20;99.90;;;;;;5051436;28;20029;-75
2024/01/17 03:32:51;;;;;;;39.97;37.17;;;3.20;99.90;;;;;;5041950;28;20464;-75
2024/01/17 03:35:17;;;;;;;38.80;36.30;;;3.20;99.90;;;;;;5033650;28;20041;-75
2024/01/17 03:37:43;;;;;;;43.67;40.87;;;3.20;99.90;;;;;;5054120;28;20024;-75
2024/01/17 03:40:10;;;;;;;43.50;40.67;;;3.20;99.90;;;;;;5054282;28;20032;-75
2024/01/17 03:42:36;;;;;;;41.07;38.57;;;3.20;99.90;;;;;;5042674;28;20029;-75
2024/01/17 03:45:02;;;;;;;34.47;32.10;;;3.20;99.90;;;;;;5054282;28;20025;-75
2024/01/17 03:47:28;;;;;;;61.97;58.20;;;3.20;99.90;;;;;;5052119;28;20056;-75
2024/01/17 03:49:54;;;;;;;40.70;38.10;;;3.30;99.90;;;;;;5053899;28;20029;-75
2024/01/17 03:52:20;;;;;;;42.57;39.67;;;3.30;99.90;;;;;;5052355;28;20085;-74
2024/01/17 03:54:46;;;;;;;34.87;32.97;;;3.30;99.90;;;;;;5053491;28;20411;-75
2024/01/17 03:57:12;;;;;;;47.73;44.67;;;3.40;99.90;;;;;;5047044;28;20041;-75
2024/01/17 03:59:43;;;;;;;46.90;43.90;;;3.40;99.90;;;;;;5068960;28;20045;-75
2024/01/17 04:02:09;;;;;;;47.90;44.72;;;3.40;99.90;;;;;;5051864;28;20033;-75
2024/01/17 04:04:35;;;;;;;58.30;54.90;;;3.50;99.90;;;;;;5054118;28;20029;-75
2024/01/17 04:07:01;;;;;;;43.67;40.87;;;3.50;99.90;;;;;;5049398;28;20037;-75
2024/01/17 04:09:27;;;;;;;54.30;50.90;;;3.50;99.90;;;;;;5053874;28;20032;-75
2024/01/17 04:11:53;;;;;;;52.87;49.27;;;3.50;99.90;;;;;;5054123;28;20040;-75
2024/01/17 04:14:19;;;;;;;55.13;51.43;;;3.50;99.90;;;;;;5073638;28;20041;-75
2024/01/17 04:16:45;;;;;;;57.00;53.10;;;3.60;99.90;;;;;;5046784;28;20045;-75
2024/01/17 04:19:11;;;;;;;54.07;50.60;;;3.60;99.90;;;;;;5033887;28;20029;-75
2024/01/17 04:21:37;;;;;;;67.33;63.20;;;3.60;99.90;;;;;;5046474;28;20033;-75
2024/01/17 04:24:04;;;;;;;61.27;57.37;;;3.60;99.90;;;;;;5052382;28;20032;-75
2024/01/17 04:26:30;;;;;;;61.30;57.47;;;3.60;99.90;;;;;;5053090;28;20040;-75
2024/01/17 04:28:56;;;;;;;64.97;60.83;;;3.60;99.90;;;;;;5053648;28;20048;-75
2024/01/17 04:31:26;;;;;;;69.20;64.93;;;3.70;99.90;;;;;;5051738;28;20037;-75
2024/01/17 04:33:52;;;;;;;121.87;114.93;;;3.70;99.90;;;;;;5052501;28;20032;-75
2024/01/17 04:36:19;;;;;;;66.60;62.47;;;3.80;99.90;;;;;;5046971;28;20499;-74
2024/01/17 04:38:45;;;;;;;95.20;89.70;;;3.80;99.90;;;;;;5032259;28;20041;-75
2024/01/17 04:41:11;;;;;;;72.90;68.33;;;3.80;99.90;;;;;;5041200;28;20029;-75
2024/01/17 04:43:41;;;;;;;73.60;69.10;;;3.80;99.90;;;;;;5041146;28;20049;-74
2024/01/17 04:46:08;;;;;;;53.43;49.87;;;3.80;99.90;;;;;;5051822;28;20041;-75
2024/01/17 04:48:35;;;;;;;80.53;75.67;;;3.80;99.90;;;;;;5053542;28;20059;-75
2024/01/17 04:51:03;;;;;;;102.03;96.07;;;3.80;99.90;;;;;;5053215;28;20060;-75
2024/01/17 04:53:29;;;;;;;148.67;140.00;;;3.90;99.90;;;;;;5052444;28;20045;-75
2024/01/17 04:55:55;;;;;;;95.53;89.57;;;4.00;99.90;;;;;;5052764;28;20480;-75
2024/01/17 04:58:22;;;;;;;79.53;74.60;;;4.00;99.90;;;;;;5052992;28;20045;-75
2024/01/17 05:00:48;;;;;;;80.37;75.57;;;4.00;99.90;;;;;;5051624;28;20040;-75
2024/01/17 05:03:15;;;;;;;105.40;99.03;;;4.10;99.90;;;;;;5050310;28;20455;-75
2024/01/17 05:05:43;;;;;;;142.97;134.80;;;4.10;99.90;;;;;;5051194;28;20048;-75
2024/01/17 05:08:10;;;;;;;124.47;117.27;;;4.10;99.90;;;;;;5051389;28;20052;-75
2024/01/17 05:10:36;;;;;;;101.10;95.07;;;4.20;99.90;;;;;;5050625;28;20390;-75
2024/01/17 05:13:03;;;;;;;84.53;79.23;;;4.30;99.90;;;;;;5050374;28;20033;-75
2024/01/17 05:15:29;;;;;;;126.17;118.87;;;4.30;99.90;;;;;;5044851;28;20048;-75
2024/01/17 05:17:55;;;;;;;135.70;127.93;;;4.30;99.90;;;;;;5037935;28;20025;-75
2024/01/17 05:20:21;;;;;;;123.37;116.37;;;4.30;99.90;;;;;;5046494;28;20040;-75
2024/01/17 05:22:48;;;;;;;81.07;75.97;;;4.40;99.90;;;;;;5044544;28;20390;-75
2024/01/17 05:25:14;;;;;;;110.93;104.47;;;4.40;99.90;;;;;;5032941;28;20045;-75
2024/01/17 05:27:40;;;;;;;98.73;93.00;;;4.50;99.90;;;;;;5035775;28;20049;-75
2024/01/17 05:30:12;;;;;;;90.10;84.40;;;4.50;99.90;;;;;;5040672;28;20026;-75
2024/01/17 05:32:38;;;;;;;348.83;102.20;;;4.50;99.90;;;;;;5039599;28;20033;-75
2024/01/17 05:35:06;;;;;;;65.47;60.97;;;4.50;99.90;;;;;;5052025;28;20021;-75
2024/01/17 05:37:32;;;;;;;74.37;69.03;;;4.60;99.90;;;;;;5042593;28;20037;-75
2024/01/17 05:39:58;;;;;;;77.67;72.67;;;4.70;99.90;;;;;;5038812;28;20787;-75
2024/01/17 05:42:24;;;;;;;61.03;56.80;;;4.70;99.90;;;;;;5049539;28;20048;-74
2024/01/17 05:44:51;;;;;;;71.13;66.47;;;4.80;99.90;;;;;;5046577;28;20025;-75
2024/01/17 05:47:17;;;;;;;85.43;79.73;;;4.90;99.90;;;;;;5048087;28;20507;-75
2024/01/17 05:49:43;;;;;;;87.17;81.57;;;4.90;99.90;;;;;;5043383;28;20041;-74
2024/01/17 05:52:10;;;;;;;71.90;66.87;;;4.90;99.90;;;;;;5051180;28;20033;-75
2024/01/17 05:54:36;;;;;;;72.43;67.50;;;5.10;99.90;;;;;;5049415;28;20035;-75
2024/01/17 05:57:02;;;;;;;103.43;96.50;;;5.10;99.90;;;;;;5040342;28;20033;-74
2024/01/17 05:59:28;;;;;;;92.17;85.63;;;5.10;99.90;;;;;;5065930;28;20052;-75
2024/01/17 06:01:54;;;;;;;116.80;109.17;;;5.20;99.90;;;;;;5050094;28;20048;-75
2024/01/17 06:04:20;;;;;;;113.37;105.83;;;5.20;99.90;;;;;;5051914;28;20029;-74
2024/01/17 06:06:47;;;;;;;76.40;70.73;;;5.20;99.90;;;;;;5037338;28;20369;-75
2024/01/17 06:09:14;;;;;;;76.67;71.30;;;5.30;99.90;;;;;;5031571;28;20072;-75
2024/01/17 06:11:40;;;;;;;98.60;91.60;;;5.40;99.90;;;;;;5031865;28;20034;-74
2024/01/17 06:14:06;;;;;;;81.50;75.63;;;5.50;99.90;;;;;;5031557;28;20080;-75
2024/01/17 06:16:32;;;;;;;86.70;80.43;;;5.50;99.90;;;;;;5031377;28;20033;-75
2024/01/17 06:18:59;;;;;;;98.80;91.80;;;5.50;99.90;;;;;;5032067;28;20037;-74
2024/01/17 06:21:26;;;;;;;88.63;82.63;;;5.60;99.90;;;;;;5031312;28;20049;-75
2024/01/17 06:23:53;;;;;;;82.57;76.00;;;5.60;99.90;;;;;;5049222;28;20393;-75
2024/01/17 06:26:19;;;;;;;130.73;121.50;;;5.60;99.90;;;;;;5048788;28;20074;-75
2024/01/17 06:28:45;;;;;;;72.60;66.73;;;5.60;99.90;;;;;;5050089;28;20037;-75
2024/01/17 06:31:20;;;;;;;71.43;64.03;;;5.70;99.90;;;;;;5051049;28;20033;-75
2024/01/17 06:33:46;;;;;;;61.33;54.80;;;5.90;99.90;;;;;;5050138;28;20494;-74
2024/01/17 06:36:13;;;;;;;63.58;57.65;;;6.10;99.90;;;;;;5051177;28;20036;-75
2024/01/17 06:38:39;;;;;;;156.63;145.05;;;6.40;99.90;;;;;;5052282;28;20072;-75
2024/01/17 06:41:05;;;;;;;154.57;143.65;;;6.60;99.90;;;;;;5043879;28;20464;-75
2024/01/17 06:43:31;;;;;;;218.25;203.45;;;6.80;99.90;;;;;;5031450;28;20044;-75
2024/01/17 06:45:58;;;;;;;214.63;199.38;;;7.10;99.90;;;;;;5031128;28;20467;-75
2024/01/17 06:48:24;;;;;;;220.00;200.73;;;7.40;99.90;;;;;;5031240;28;20053;-75
2024/01/17 06:50:50;;;;;;;245.40;229.23;;;7.60;99.90;;;;;;5031538;28;20033;-75
2024/01/17 06:53:17;;;;;;;221.38;206.70;;;7.70;99.90;;;;;;5041916;28;20017;-75
2024/01/17 06:55:43;;;;;;;193.95;180.45;;;7.90;99.90;;;;;;5061980;28;20033;-75
2024/01/17 06:58:10;;;;;;;271.95;253.18;;;8.10;99.90;;;;;;5046239;28;20406;-75
2024/01/17 07:00:36;;;;;;;225.15;209.73;;;8.20;99.90;;;;;;5041837;28;20036;-75
2024/01/17 07:03:02;;;;;;;260.73;243.35;;;8.40;99.90;;;;;;5039787;28;20021;-75
2024/01/17 07:05:28;;;;;;;269.40;243.77;;;8.50;99.90;;;;;;5054741;28;20033;-76
2024/01/17 07:07:54;;;;;;;273.58;255.48;;;8.60;99.90;;;;;;5050262;28;20035;-75
2024/01/17 07:10:23;;;;;;;217.98;203.35;;;8.60;99.90;;;;;;5054788;28;20036;-75
2024/01/17 07:12:50;;;;;;;243.55;226.88;;;8.70;99.90;;;;;;5069901;28;20033;-75
2024/01/17 07:15:17;;;;;;;278.35;257.88;;;8.70;99.90;;;;;;5052232;28;20056;-74
2024/01/17 07:17:43;;;;;;;284.80;264.75;;;8.80;99.90;;;;;;5034125;28;20030;-74
2024/01/17 07:20:10;;;;;;;253.68;235.88;;;8.80;99.90;;;;;;5051194;28;20036;-74
2024/01/17 07:22:44;;;;;;;250.98;234.30;;;8.90;99.90;;;;;;5045727;28;20029;-73
2024/01/17 07:25:10;;;;;;;219.30;204.32;;;8.90;99.90;;;;;;5037051;28;20046;-74
2024/01/17 07:27:39;;;;;;;194.68;181.02;;;8.90;99.90;;;;;;5034074;28;20037;-74
2024/01/17 07:30:05;;;;;;;235.02;219.13;;;9.00;99.90;;;;;;5034234;28;20502;-74
2024/01/17 07:32:33;;;;;;;210.30;194.55;;;9.10;99.90;;;;;;5043866;28;20036;-74
2024/01/17 07:34:59;;;;;;;251.70;234.45;;;9.20;99.90;;;;;;5044209;28;20033;-73
2024/01/17 07:37:25;;;;;;;248.30;231.75;;;9.30;99.90;;;;;;5041496;28;20029;-75
2024/01/17 07:39:51;;;;;;;272.33;254.00;;;9.40;99.90;;;;;;5054309;28;20041;-74
2024/01/17 07:42:18;;;;;;;262.20;244.50;;;9.60;99.90;;;;;;5054076;28;20040;-74
2024/01/17 07:44:45;;;;;;;230.05;214.63;;;9.70;99.90;;;;;;5054403;28;20408;-74
2024/01/17 07:47:11;;;;;;;239.85;224.02;;;9.80;99.90;;;;;;5053768;28;20044;-74
2024/01/17 07:49:38;;;;;;;249.82;233.40;;;9.90;99.90;;;;;;5051438;28;20053;-74
2024/01/17 07:52:05;;;;;;;261.40;244.13;;;10.10;99.90;;;;;;5054411;28;20052;-74
2024/01/17 07:54:34;;;;;;;279.45;261.23;;;10.10;99.90;;;;;;5043137;28;20042;-74
2024/01/17 07:57:00;;;;;;;262.33;245.35;;;10.10;99.90;;;;;;5033936;28;20038;-74
2024/01/17 07:59:27;;;;;;;240.43;224.48;;;10.00;99.90;;;;;;5032633;28;20052;-74
2024/01/17 08:01:57;;;;;;;262.83;245.70;;;10.10;99.90;;;;;;5033421;28;20403;-74
2024/01/17 08:04:23;;;;;;;243.40;227.30;;;10.20;99.90;;;;;;5034089;28;20037;-74
2024/01/17 08:06:49;;;;;;;256.38;238.85;;;10.20;99.90;;;;;;5034064;28;20060;-74
2024/01/17 08:09:21;;;;;;;289.52;270.33;;;10.30;99.90;;;;;;5033037;28;20048;-74
2024/01/17 08:11:49;;;;;;;294.90;274.90;;;10.30;99.90;;;;;;5055376;28;20037;-74
2024/01/17 08:14:15;;;;;;;250.63;233.30;;;10.30;99.90;;;;;;5033879;28;20053;-74
2024/01/17 08:16:41;;;;;;;247.63;230.95;;;10.40;99.90;;;;;;5033197;28;20060;-74
2024/01/17 08:19:07;;;;;;;271.67;253.10;;;10.50;99.90;;;;;;5033889;28;20036;-74
2024/01/17 08:21:33;;;;;;;192.27;179.40;;;10.50;99.90;;;;;;5033747;28;20091;-74
2024/01/17 08:23:59;;;;;;;222.20;206.98;;;10.60;99.90;;;;;;5033495;28;20037;-74
2024/01/17 08:26:25;;;;;;;252.13;235.85;;;10.60;99.90;;;;;;5050827;28;20052;-74
2024/01/17 08:28:51;;;;;;;237.57;221.82;;;10.60;99.90;;;;;;5053670;28;20037;-74
2024/01/17 08:31:17;;;;;;;354.20;330.65;;;10.70;99.90;;;;;;5051112;28;20527;-74
2024/01/17 08:33:44;;;;;;;213.75;199.23;;;10.70;99.90;;;;;;5050357;28;20052;-74
2024/01/17 08:36:10;;;;;;;284.33;265.60;;;10.80;99.90;;;;;;5051837;28;20060;-74
2024/01/17 08:38:36;;;;;;;257.80;241.30;;;10.90;99.90;;;;;;5051523;28;20403;-75
2024/01/17 08:41:02;;;;;;;295.73;276.08;;;10.80;99.90;;;;;;5036937;28;20033;-74
2024/01/17 08:43:28;;;;;;;346.98;324.45;;;10.90;99.90;;;;;;5034244;28;20049;-75
2024/01/17 08:45:54;;;;;;;367.48;343.25;;;11.10;99.90;;;;;;5052333;28;20036;-74
2024/01/17 08:48:20;;;;;;;297.42;276.65;;;11.00;99.90;;;;;;5053124;28;20029;-74
2024/01/17 08:50:47;;;;;;;305.10;285.20;;;11.10;99.90;;;;;;5052778;28;20033;-74
2024/01/17 08:53:13;;;;;;;229.70;214.65;;;11.10;99.90;;;;;;5052539;28;20041;-74
2024/01/17 08:55:39;;;;;;;216.80;202.02;;;11.10;99.90;;;;;;5052704;28;20067;-74
2024/01/17 08:58:06;;;;;;;234.45;220.32;;;11.20;99.90;;;;;;5052656;28;20045;-74
2024/01/17 09:00:32;;;;;;;216.18;202.00;;;11.30;99.90;;;;;;5048899;28;20044;-74
2024/01/17 09:02:58;;;;;;;218.50;204.10;;;11.30;99.90;;;;;;5037429;28;20502;-73
2024/01/17 09:05:24;;;;;;;203.13;190.68;;;11.30;99.90;;;;;;5039003;28;20037;-74
2024/01/17 09:07:50;;;;;;;165.90;154.98;;;11.40;99.90;;;;;;5048911;28;20052;-74
2024/01/17 09:10:17;;;;;;;172.73;162.00;;;11.40;99.90;;;;;;5041831;28;20527;-71
2024/01/17 09:12:44;;;;;;;165.18;154.95;;;11.50;99.90;;;;;;5032948;28;20021;-73
2024/01/17 09:15:10;;;;;;;177.80;166.52;;;11.50;99.90;;;;;;5042931;28;20049;-73
2024/01/17 09:17:36;;;;;;;198.75;186.63;;;11.60;99.90;;;;;;5031804;28;20056;-73
2024/01/17 09:20:06;;;;;;;182.25;170.63;;;11.60;99.90;;;;;;5048230;28;20037;-73
2024/01/17 09:22:32;;;;;;;174.88;164.52;;;11.70;99.90;;;;;;5050745;28;20041;-73
2024/01/17 09:25:02;;;;;;;164.10;153.68;;;11.70;99.90;;;;;;5051629;28;20048;-72
2024/01/17 09:27:28;;;;;;;198.55;186.35;;;11.80;99.90;;;;;;5051946;28;20076;-73
2024/01/17 09:29:55;;;;;;;165.23;155.57;;;11.80;99.90;;;;;;5045581;28;20054;-73
2024/01/17 09:32:21;;;;;;;195.75;184.15;;;11.90;99.90;;;;;;5041209;28;20033;-73
2024/01/17 09:34:50;;;;;;;184.93;172.45;;;11.90;99.90;;;;;;5043634;28;20040;-73
2024/01/17 09:37:16;;;;;;;298.17;279.98;;;11.90;99.90;;;;;;5046135;28;20025;-73
2024/01/17 09:39:43;;;;;;;157.27;147.73;;;11.90;99.90;;;;;;5037793;28;20025;-72
2024/01/17 09:42:10;;;;;;;151.18;142.48;;;11.90;99.90;;;;;;5048310;28;20048;-72
2024/01/17 09:44:36;;;;;;;175.10;164.40;;;12.00;99.90;;;;;;5050941;28;20052;-73
2024/01/17 09:47:04;;;;;;;135.32;127.03;;;11.90;99.90;;;;;;5047455;28;20045;-72
2024/01/17 09:49:31;;;;;;;126.65;118.80;;;11.90;99.90;;;;;;5033949;28;20029;-72
2024/01/17 09:52:00;;;;;;;119.25;111.20;;;12.00;99.90;;;;;;5048245;28;20506;-73
2024/01/17 09:54:26;;;;;;;115.22;107.78;;;12.00;99.90;;;;;;5032147;28;20096;-72
2024/01/17 09:56:56;;;;;;;140.38;131.73;;;12.00;99.90;;;;;;5048370;28;20040;-72
2024/01/17 09:59:27;;;;;;;126.03;117.90;;;12.00;99.90;;;;;;5050639;28;20029;-72
2024/01/17 10:01:55;;;;;;;112.25;104.88;;;12.00;99.90;;;;;;5044425;28;20041;-72
2024/01/17 10:04:23;;;;;;;132.13;123.93;;;12.10;99.90;;;;;;5046151;28;20048;-72
2024/01/17 10:06:49;;;;;;;113.22;106.13;;;12.10;99.90;;;;;;5036216;28;20041;-72
2024/01/17 10:09:15;;;;;;;94.95;88.38;;;12.20;99.90;;;;;;5050866;28;20048;-74
2024/01/17 10:11:42;;;;;;;97.32;90.40;;;12.20;99.90;;;;;;5045207;28;20380;-73
2024/01/17 10:14:08;;;;;;;117.55;109.93;;;12.20;99.90;;;;;;5031858;28;20053;-73
2024/01/17 10:16:35;;;;;;;157.07;147.57;;;12.20;99.90;;;;;;5040192;28;20041;-74
2024/01/17 10:19:04;;;;;;;216.00;203.13;;;12.20;99.90;;;;;;5049461;28;20354;-73
2024/01/17 10:21:33;;;;;;;196.32;184.52;;;12.20;99.90;;;;;;5048561;28;20049;-73
2024/01/17 10:24:00;;;;;;;228.73;215.50;;;12.20;99.90;;;;;;5044211;28;20045;-73
2024/01/17 10:26:26;;;;;;;158.05;147.95;;;12.20;99.90;;;;;;5041118;28;20399;-74
2024/01/17 10:28:52;;;;;;;108.65;101.97;;;12.30;99.90;;;;;;5032662;28;20045;-72
2024/01/17 10:31:21;;;;;;;108.82;102.05;;;12.20;99.90;;;;;;5040423;28;20040;-72
2024/01/17 10:33:48;;;;;;;118.53;110.85;;;12.30;99.90;;;;;;5039224;28;20396;-72
2024/01/17 10:36:14;;;;;;;224.60;211.02;;;12.30;99.90;;;;;;5042175;28;20033;-72
2024/01/17 10:38:41;;;;;;;282.73;266.25;;;12.30;99.90;;;;;;5044746;28;20510;-73
2024/01/17 10:41:07;;;;;;;220.50;207.73;;;12.30;99.90;;;;;;5037052;28;20042;-72
2024/01/17 10:43:55;;;;;;;348.50;327.27;;;12.30;99.90;;;;;;5035623;28;20032;-73
2024/01/17 10:46:22;;;;;;;184.93;172.82;;;12.30;99.90;;;;;;5053285;28;20041;-72
2024/01/17 10:48:48;;;;;;;159.25;148.98;;;12.40;99.90;;;;;;5044561;28;20045;-73
2024/01/17 10:51:22;;;;;;;208.30;196.07;;;12.40;99.90;;;;;;5027700;28;20037;-73
2024/01/17 10:53:49;;;;;;;200.15;188.75;;;12.40;99.90;;;;;;5045777;28;20029;-73
2024/01/17 10:56:19;;;;;;;219.38;206.43;;;12.40;99.90;;;;;;5042019;28;20041;-73
2024/01/17 10:58:54;;;;;;;237.90;224.52;;;12.40;99.90;;;;;;5040938;28;20499;-73
2024/01/17 11:01:25;;;;;;;238.65;225.38;;;12.40;99.90;;;;;;5041524;28;20514;-73
2024/01/17 11:03:53;;;;;;;313.05;294.25;;;12.40;99.90;;;;;;5053570;28;20085;-73
2024/01/17 11:06:20;;;;;;;185.68;174.05;;;12.40;99.90;;;;;;5052533;28;20041;-73
2024/01/17 11:08:46;;;;;;;98.75;92.20;;;12.40;99.90;;;;;;5049689;28;20029;-73
2024/01/17 11:11:12;;;;;;;87.85;81.72;;;12.40;99.90;;;;;;5040772;28;20033;-73
2024/01/17 11:13:38;;;;;;;101.75;94.90;;;12.40;99.90;;;;;;5033737;28;20041;-73
2024/01/17 11:16:05;;;;;;;89.68;82.78;;;12.40;99.90;;;;;;5043626;28;20041;-73
2024/01/17 11:18:31;;;;;;;106.32;98.97;;;12.40;99.90;;;;;;5034907;28;20476;-73
2024/01/17 11:20:57;;;;;;;98.22;90.95;;;12.40;99.90;;;;;;5033739;28;20036;-73
2024/01/17 11:23:30;;;;;;;106.47;99.28;;;12.40;99.90;;;;;;5033325;28;20053;-73
2024/01/17 11:26:30;;;;;;;120.13;111.95;;;12.40;99.90;;;;;;5022487;28;20037;-73
2024/01/17 11:29:18;;;;;;;106.50;99.22;;;12.40;99.90;;;;;;5035868;28;20041;-73
2024/01/17 11:32:03;;;;;;;129.77;121.80;;;12.40;99.90;;;;;;5041261;28;20052;-73
2024/01/17 11:34:30;;;;;;;132.52;124.13;;;12.50;99.90;;;;;;5034054;28;20044;-72
2024/01/17 11:36:56;;;;;;;124.43;116.15;;;12.50;99.90;;;;;;5051803;28;20032;-73
2024/01/17 11:39:22;;;;;;;145.13;136.38;;;12.50;99.90;;;;;;5053990;28;20033;-73
2024/01/17 11:41:49;;;;;;;125.03;117.03;;;12.50;99.90;;;;;;5028244;28;20037;-72
2024/01/17 11:44:16;;;;;;;130.57;121.50;;;12.50;99.90;;;;;;5044899;28;20067;-72
2024/01/17 11:46:47;;;;;;;149.00;139.43;;;12.50;99.90;;;;;;5042338;28;20048;-73
2024/01/17 11:49:14;;;;;;;120.63;112.07;;;12.50;99.90;;;;;;5056021;28;20040;-73
2024/01/17 11:51:40;;;;;;;119.82;111.97;;;12.50;99.90;;;;;;5051879;28;20614;-72
2024/01/17 11:54:14;;;;;;;105.18;98.20;;;12.60;99.90;;;;;;5039441;28;20101;-72
2024/01/17 11:56:41;;;;;;;119.72;112.22;;;12.60;99.90;;;;;;5045609;28;20032;-73
2024/01/17 11:59:09;;;;;;;121.65;114.30;;;12.60;99.90;;;;;;5054111;28;20040;-72
2024/01/17 12:01:35;;;;;;;111.53;104.43;;;12.60;99.90;;;;;;5052427;28;20040;-72
2024/01/17 12:04:09;;;;;;;89.30;83.18;;;12.70;99.90;;;;;;5053322;28;20100;-73
2024/01/17 12:06:36;;;;;;;84.50;79.07;;;12.70;99.90;;;;;;5051971;28;20029;-72
2024/01/17 12:09:04;;;;;;;94.32;88.32;;;12.70;99.90;;;;;;5050427;28;20040;-72
2024/01/17 12:11:30;;;;;;;98.43;92.25;;;12.70;99.90;;;;;;5050921;28;20052;-72
2024/01/17 12:13:57;;;;;;;117.13;109.72;;;12.70;99.90;;;;;;5039335;28;20045;-72
2024/01/17 12:16:23;;;;;;;98.78;92.20;;;12.70;99.90;;;;;;5042396;28;20041;-72
2024/01/17 12:18:59;;;;;;;123.70;115.82;;;12.80;99.90;;;;;;5041608;28;20051;-72
2024/01/17 12:21:25;;;;;;;100.05;94.00;;;12.80;99.90;;;;;;5043037;28;20049;-72